createdAt,value
2023-03-14T03:11:01.324Z,37.3850
2023-03-14T03:12:03.433Z,37.1760
2023-03-14T03:13:05.707Z,37.0330
2023-03-14T03:14:08.001Z,36.9520
2023-03-14T03:15:10.295Z,36.9090
2023-03-14T03:16:12.753Z,36.8800
2023-03-14T03:17:14.936Z,36.8750
2023-03-14T03:18:15.045Z,36.8700
2023-03-14T03:19:17.294Z,36.8690
2023-03-14T03:20:19.610Z,36.8400
2023-03-14T03:21:22.024Z,36.8530
2023-03-14T03:22:24.236Z,36.8340
2023-03-14T03:23:26.527Z,36.8280
2023-03-14T03:24:28.822Z,36.8220
2023-03-14T03:25:28.955Z,36.7930
2023-03-14T03:26:31.402Z,36.8050
2023-03-14T03:27:35.638Z,36.8680
2023-03-14T03:28:07.846Z,36.8740
2023-03-14T03:29:10.068Z,36.8570
2023-03-14T03:30:12.364Z,36.8390
2023-03-14T03:31:14.785Z,36.8170
2023-03-14T03:32:14.891Z,36.8030
2023-03-14T03:33:17.082Z,36.8570
2023-03-14T03:34:19.377Z,36.8030
2023-03-14T03:35:21.641Z,36.7880
2023-03-14T03:36:23.933Z,36.7520
2023-03-14T03:37:26.224Z,36.7640
2023-03-14T03:38:28.502Z,36.7580
2023-03-14T03:39:28.634Z,36.7350
2023-03-14T03:40:35.793Z,36.7230
2023-03-14T03:41:38.591Z,36.8120
2023-03-14T03:42:40.916Z,36.9710
2023-03-14T03:43:43.143Z,37.0730
2023-03-14T03:44:45.420Z,37.1540
2023-03-14T03:45:47.775Z,37.1680
2023-03-14T03:46:50.037Z,37.1620
2023-03-14T03:47:52.462Z,37.1890
2023-03-14T03:48:52.522Z,37.2120
2023-03-14T03:49:54.830Z,37.2160
2023-03-14T03:50:57.147Z,37.2220
2023-03-14T03:51:59.394Z,37.2260
2023-03-14T03:53:01.685Z,37.2490
2023-03-14T03:54:03.921Z,37.2080
2023-03-14T03:55:06.117Z,37.2200
2023-03-14T03:56:08.340Z,37.2680
2023-03-14T03:57:10.652Z,37.2980
2023-03-14T03:58:12.854Z,37.2870
2023-03-14T03:59:15.085Z,37.2710
2023-03-14T04:00:17.335Z,37.2660
2023-03-14T04:01:19.621Z,37.2660
2023-03-14T04:02:21.932Z,37.2510
2023-03-14T04:03:24.155Z,37.3160
2023-03-14T04:04:24.239Z,37.3480
2023-03-14T04:05:26.490Z,37.3140
2023-03-14T04:06:28.709Z,37.2540
2023-03-14T04:07:30.875Z,37.2430
2023-03-14T04:08:33.147Z,37.2680
2023-03-14T04:09:35.396Z,37.2540
2023-03-14T04:10:37.630Z,37.2140
2023-03-14T04:11:39.893Z,37.2180
2023-03-14T04:12:42.171Z,37.2160
2023-03-14T04:13:44.580Z,37.2450
2023-03-14T04:14:46.672Z,37.2390
2023-03-14T04:15:48.973Z,37.2610
2023-03-14T04:16:49.122Z,37.3050
2023-03-14T04:17:51.412Z,37.2880
2023-03-14T04:18:53.782Z,37.2820
2023-03-14T04:19:56.012Z,37.2900
2023-03-14T04:22:09.348Z,37.1300
2023-03-14T04:23:10.415Z,37.0050
2023-03-14T04:24:12.820Z,37.0540
2023-03-14T04:25:15.050Z,37.1630
2023-03-14T04:26:16.270Z,37.1010
2023-03-14T04:27:18.562Z,37.0080
2023-03-14T04:28:20.953Z,36.9240
2023-03-14T04:29:23.251Z,36.8950
2023-03-14T04:30:23.347Z,36.8950
2023-03-14T04:31:25.662Z,36.8550
2023-03-14T04:32:27.914Z,36.8650
2023-03-14T04:33:30.192Z,36.8650
2023-03-14T04:34:32.624Z,36.8610
2023-03-14T04:35:34.875Z,36.8690
2023-03-14T04:36:35.956Z,36.9280
2023-03-14T04:37:37.332Z,36.9580
2023-03-14T04:38:39.654Z,37.0000
2023-03-14T04:39:41.973Z,37.0570
2023-03-14T04:40:44.282Z,37.0970
2023-03-14T04:41:46.598Z,37.1390
2023-03-14T04:42:46.790Z,37.1470
2023-03-14T04:43:49.154Z,37.1920
2023-03-14T04:44:51.495Z,37.1830
2023-03-14T04:45:53.696Z,37.1770
2023-03-14T04:46:56.098Z,37.1860
2023-03-14T04:47:58.300Z,37.2290
2023-03-14T04:48:58.445Z,37.2590
2023-03-14T04:50:00.746Z,37.2760
2023-03-14T04:51:03.055Z,37.2820
2023-03-14T04:52:05.380Z,37.2860
2023-03-14T04:53:07.679Z,37.3240
2023-03-14T04:54:09.991Z,37.3300
2023-03-14T04:55:10.188Z,37.3890
2023-03-14T04:56:12.453Z,37.3910
2023-03-14T04:57:14.733Z,37.3910
2023-03-14T04:58:17.066Z,37.3790
2023-03-14T04:59:19.418Z,37.3640
2023-03-14T05:00:21.833Z,37.3770
2023-03-14T05:01:24.095Z,37.4100
2023-03-14T05:02:26.344Z,37.4210
2023-03-14T05:03:28.599Z,37.4830
2023-03-14T05:04:30.939Z,37.5100
2023-03-14T05:05:33.274Z,37.5150
2023-03-14T05:06:35.567Z,37.5210
2023-03-14T05:07:35.747Z,37.5240
2023-03-14T05:08:38.058Z,37.5510
2023-03-14T05:09:40.357Z,37.6090
2023-03-14T05:10:42.707Z,37.7060
2023-03-14T05:11:44.960Z,37.7420
2023-03-14T05:12:47.249Z,37.8450
2023-03-14T05:13:47.392Z,37.9070
2023-03-14T05:14:49.697Z,37.9610
2023-03-14T05:15:52.122Z,38.0220
2023-03-14T05:16:54.240Z,38.0540
2023-03-14T05:17:56.540Z,38.0280
2023-03-14T05:18:58.835Z,38.0690
2023-03-14T05:20:01.134Z,38.0850
2023-03-14T05:21:01.387Z,38.0640
2023-03-14T05:22:03.599Z,38.0870
2023-03-14T05:23:05.885Z,38.0580
2023-03-14T05:24:08.184Z,38.0520
2023-03-14T05:25:10.489Z,38.1010
2023-03-14T05:26:12.832Z,38.1140
2023-03-14T05:27:15.106Z,38.1290
2023-03-14T05:28:15.259Z,38.1410
2023-03-14T05:29:17.555Z,38.1200
2023-03-14T05:30:19.899Z,38.1470
2023-03-14T05:31:22.286Z,38.1640
2023-03-14T05:32:24.566Z,38.1560
2023-03-14T05:33:26.760Z,38.1470
2023-03-14T05:34:29.045Z,38.1500
2023-03-14T05:35:29.142Z,38.1440
2023-03-14T05:36:31.534Z,38.1700
2023-03-14T05:37:33.690Z,38.1860
2023-03-14T05:38:35.993Z,38.1700
2023-03-14T05:39:38.263Z,38.1580
2023-03-14T05:41:55.828Z,38.2110
2023-03-14T05:42:58.029Z,38.2050
2023-03-14T05:44:00.280Z,38.2160
2023-03-14T05:45:00.377Z,38.1560
2023-03-14T05:46:02.837Z,38.1140
2023-03-14T05:47:04.884Z,38.1140
2023-03-14T05:48:07.109Z,38.1140
2023-03-14T05:49:09.408Z,38.0930
2023-03-14T05:50:11.710Z,38.1410
2023-03-14T05:51:14.006Z,38.1290
2023-03-14T05:52:14.189Z,38.1290
2023-03-14T05:53:16.478Z,38.1020
2023-03-14T05:54:18.731Z,38.0870
2023-03-14T05:55:21.033Z,38.1200
2023-03-14T05:56:23.276Z,38.1260
2023-03-14T05:57:25.576Z,38.1030
2023-03-14T05:58:27.825Z,38.1090
2023-03-14T05:59:30.127Z,38.1010
2023-03-14T06:00:30.277Z,38.0800
2023-03-14T06:01:32.609Z,38.0920
2023-03-14T06:02:35.006Z,38.0800
2023-03-14T06:03:37.229Z,38.0740
2023-03-14T06:04:39.467Z,38.0220
2023-03-14T06:05:41.716Z,38.0170
2023-03-14T06:06:43.953Z,37.9820
2023-03-14T06:07:46.215Z,37.9990
2023-03-14T06:08:48.389Z,38.0040
2023-03-14T06:09:48.508Z,37.6760
2023-03-14T06:10:50.719Z,37.5190
2023-03-14T06:11:52.974Z,37.4180
2023-03-14T06:12:55.250Z,37.3890
2023-03-14T06:13:57.418Z,37.3930
2023-03-14T06:14:59.698Z,37.3830
2023-03-14T06:16:01.986Z,37.3660
2023-03-14T06:17:04.251Z,37.3850
2023-03-14T06:18:04.487Z,37.4150
2023-03-14T06:19:06.580Z,37.3900
2023-03-14T06:20:08.826Z,37.3670
2023-03-14T06:21:11.053Z,37.3620
2023-03-14T06:22:13.293Z,37.4060
2023-03-14T06:23:15.680Z,37.3200
2023-03-14T06:24:17.887Z,37.2730
2023-03-14T06:25:20.197Z,37.2310
2023-03-14T06:26:22.470Z,37.2710
2023-03-14T06:27:22.623Z,37.2820
2023-03-14T06:28:26.157Z,37.2750
2023-03-14T06:29:27.205Z,37.3090
2023-03-14T06:30:29.551Z,37.2710
2023-03-14T06:31:31.786Z,37.2750
2023-03-14T06:32:34.101Z,37.3040
2023-03-14T06:33:36.454Z,37.2630
2023-03-14T06:34:36.466Z,37.2490
2023-03-14T06:35:38.768Z,37.3040
2023-03-14T06:36:40.984Z,37.2870
2023-03-14T06:37:43.219Z,37.2040
2023-03-14T06:38:45.541Z,37.1740
2023-03-14T06:39:47.654Z,37.2010
2023-03-14T06:40:49.917Z,37.1840
2023-03-14T06:41:52.135Z,37.1610
2023-03-14T06:42:54.378Z,37.1130
2023-03-14T06:43:56.852Z,37.1540
2023-03-14T06:44:58.861Z,37.1420
2023-03-14T06:45:59.041Z,37.1310
2023-03-14T06:47:01.295Z,37.0750
2023-03-14T06:48:03.647Z,37.0280
2023-03-14T06:49:05.936Z,37.0260
2023-03-14T06:50:08.252Z,37.0540
2023-03-14T06:51:08.448Z,37.0810
2023-03-14T06:52:10.757Z,37.0910
2023-03-14T06:53:13.214Z,37.1200
2023-03-14T06:54:15.517Z,37.0750
2023-03-14T06:55:17.740Z,37.0200
2023-03-14T06:56:17.882Z,36.9900
2023-03-14T06:57:20.202Z,36.9640
2023-03-14T06:58:22.490Z,36.9940
2023-03-14T06:59:24.858Z,37.0200
2023-03-14T07:00:27.064Z,37.0490
2023-03-14T07:01:29.533Z,37.0170
2023-03-14T07:02:42.209Z,37.0080
2023-03-14T07:03:33.957Z,37.0430
2023-03-14T07:04:34.224Z,36.9900
2023-03-14T07:05:36.339Z,37.0370
2023-03-14T07:06:38.625Z,37.0220
2023-03-14T07:07:40.896Z,37.0280
2023-03-14T07:08:43.174Z,36.9950
2023-03-14T07:09:45.466Z,36.9990
2023-03-14T07:10:47.666Z,37.0430
2023-03-14T07:11:49.937Z,37.0280
2023-03-14T07:12:50.048Z,37.0720
2023-03-14T07:13:50.228Z,37.0590
2023-03-14T07:14:52.562Z,37.0190
2023-03-14T07:15:54.957Z,37.0480
2023-03-14T07:16:57.145Z,37.0650
2023-03-14T07:17:59.473Z,37.0480
2023-03-14T07:19:01.829Z,37.0540
2023-03-14T07:20:01.998Z,37.0750
2023-03-14T07:21:04.293Z,37.0480
2023-03-14T07:22:06.595Z,37.0360
2023-03-14T07:23:08.918Z,37.0160
2023-03-14T07:24:11.214Z,37.0220
2023-03-14T07:25:11.401Z,37.0100
2023-03-14T07:26:13.702Z,37.0050
2023-03-14T07:27:16.004Z,37.0160
2023-03-14T07:28:18.322Z,36.9870
2023-03-14T07:29:20.631Z,36.9870
2023-03-14T07:30:22.970Z,36.9490
2023-03-14T07:31:23.248Z,36.9130
2023-03-14T07:32:25.503Z,36.8900
2023-03-14T07:33:27.799Z,36.9000
2023-03-14T07:34:30.204Z,36.9340
2023-03-14T07:35:32.624Z,36.9110
2023-03-14T07:36:32.620Z,36.8870
2023-03-14T07:37:34.922Z,36.8870
2023-03-14T07:38:37.240Z,36.8750
2023-03-14T07:39:39.564Z,36.8870
2023-03-14T07:40:41.928Z,36.8750
2023-03-14T07:41:44.237Z,36.8370
2023-03-14T07:42:44.385Z,36.7970
2023-03-14T07:43:46.677Z,36.7840
2023-03-14T07:44:48.968Z,36.7720
2023-03-14T07:45:58.632Z,36.7840
2023-03-14T07:46:53.628Z,36.8050
2023-03-14T07:47:55.895Z,36.8240
2023-03-14T07:48:56.058Z,36.7840
2023-03-14T07:49:58.421Z,36.7550
2023-03-14T07:51:00.728Z,36.7320
2023-03-14T07:52:03.014Z,36.7210
2023-03-14T07:53:05.340Z,36.7500
2023-03-14T07:54:07.675Z,36.7270
2023-03-14T07:55:07.854Z,36.7020
2023-03-14T07:56:10.208Z,36.6740
2023-03-14T07:57:12.494Z,36.6680
2023-03-14T07:58:14.842Z,36.6510
2023-03-14T07:59:17.131Z,36.6510
2023-03-14T08:00:17.320Z,36.6560
2023-03-14T08:01:19.734Z,36.6430
2023-03-14T08:02:21.967Z,36.6290
2023-03-14T08:03:24.172Z,36.6050
2023-03-14T08:04:26.396Z,36.5980
2023-03-14T08:05:28.669Z,36.5980
2023-03-14T08:06:30.945Z,36.5980
2023-03-14T08:07:33.082Z,36.6030
2023-03-14T08:08:35.342Z,36.5710
2023-03-14T08:09:35.441Z,36.5880
2023-03-14T08:10:37.693Z,36.5860
2023-03-14T08:11:39.985Z,36.6090
2023-03-14T08:12:42.225Z,36.5980
2023-03-14T08:13:44.452Z,36.6000
2023-03-14T08:14:46.713Z,36.6190
2023-03-14T08:15:48.987Z,36.6070
2023-03-14T08:16:51.330Z,36.5980
2023-03-14T08:17:53.492Z,36.5670
2023-03-14T08:18:53.576Z,36.5390
2023-03-14T08:19:55.833Z,36.5270
2023-03-14T08:20:58.094Z,36.5060
2023-03-14T08:22:00.434Z,36.4590
2023-03-14T08:23:02.581Z,36.4970
2023-03-14T08:24:04.831Z,36.4800
2023-03-14T08:25:07.127Z,36.4780
2023-03-14T08:26:09.360Z,36.4800
2023-03-14T08:27:11.745Z,36.4470
2023-03-14T08:28:11.738Z,36.4360
2023-03-14T08:29:14.060Z,36.4240
2023-03-14T08:30:16.225Z,36.4050
2023-03-14T08:31:18.590Z,36.4170
2023-03-14T08:32:20.742Z,36.4190
2023-03-14T08:33:22.942Z,36.4300
2023-03-14T08:34:25.197Z,36.3990
2023-03-14T08:35:27.486Z,36.3820
2023-03-14T08:36:29.783Z,36.3270
2023-03-14T08:37:29.884Z,36.3340
2023-03-14T08:38:32.142Z,36.2850
2023-03-14T08:39:34.424Z,36.2730
2023-03-14T08:40:36.707Z,36.2790
2023-03-14T08:41:38.979Z,36.2790
2023-03-14T08:42:41.298Z,36.2670
2023-03-14T08:43:43.537Z,36.2370
2023-03-14T08:44:45.859Z,36.2460
2023-03-14T08:45:45.954Z,36.2290
2023-03-14T08:46:48.278Z,36.2030
2023-03-14T08:47:50.593Z,36.1770
2023-03-14T08:48:52.746Z,36.1750
2023-03-14T08:49:55.060Z,36.1710
2023-03-14T08:50:57.248Z,36.1710
2023-03-14T08:51:59.546Z,36.1940
2023-03-14T08:53:01.929Z,36.1270
2023-03-14T08:54:01.918Z,36.1650
2023-03-14T08:55:04.184Z,36.1500
2023-03-14T08:56:06.466Z,36.1230
2023-03-14T08:57:08.736Z,36.1170
2023-03-14T08:58:11.126Z,36.1050
2023-03-14T08:59:13.308Z,36.0630
2023-03-14T09:00:15.624Z,36.0750
2023-03-14T09:01:17.862Z,36.0630
2023-03-14T09:02:17.945Z,36.0630
2023-03-14T09:03:20.282Z,36.0690
2023-03-14T09:04:20.393Z,36.0690
2023-03-14T09:05:22.734Z,36.0580
2023-03-14T09:06:24.775Z,36.0250
2023-03-14T09:07:27.000Z,36.0250
2023-03-14T09:08:29.264Z,36.0020
2023-03-14T09:09:31.525Z,36.0350
2023-03-14T09:10:33.771Z,36.0290
2023-03-14T09:11:33.864Z,36.0020
2023-03-14T09:12:36.146Z,35.9970
2023-03-14T09:13:38.520Z,35.9940
2023-03-14T09:14:40.708Z,36.0110
2023-03-14T09:15:43.009Z,36.0240
2023-03-14T09:16:45.333Z,36.0050
2023-03-14T09:17:47.614Z,35.9850
2023-03-14T09:18:47.843Z,35.9730
2023-03-14T09:19:49.985Z,35.9970
2023-03-14T09:20:52.260Z,35.9780
2023-03-14T09:21:54.510Z,35.9720
2023-03-14T09:22:56.829Z,35.9730
2023-03-14T09:23:59.068Z,35.9550
2023-03-14T09:25:01.313Z,35.9660
2023-03-14T09:26:01.405Z,35.9490
2023-03-14T09:27:03.721Z,35.9430
2023-03-14T09:28:05.959Z,35.9220
2023-03-14T09:29:08.326Z,35.9050
2023-03-14T09:30:10.457Z,35.9050
2023-03-14T09:31:12.745Z,35.8830
2023-03-14T09:32:14.965Z,35.8710
2023-03-14T09:33:17.175Z,35.8770
2023-03-14T09:34:19.463Z,35.8530
2023-03-14T09:35:21.756Z,35.8650
2023-03-14T09:36:23.961Z,35.8400
2023-03-14T09:37:24.067Z,35.8410
2023-03-14T09:38:26.380Z,35.8290
2023-03-14T09:39:28.736Z,35.8470
2023-03-14T09:40:30.847Z,35.8650
2023-03-14T09:41:33.114Z,35.8520
2023-03-14T09:42:35.388Z,35.8460
2023-03-14T09:43:35.501Z,35.8020
2023-03-14T09:44:37.876Z,35.7870
2023-03-14T09:45:40.178Z,35.7750
2023-03-14T09:46:42.411Z,35.7600
2023-03-14T09:47:58.357Z,35.7660
2023-03-14T09:48:47.057Z,35.7970
2023-03-14T09:49:49.496Z,35.8190
2023-03-14T09:50:49.477Z,35.8040
2023-03-14T09:51:51.778Z,35.7750
2023-03-14T09:52:54.080Z,35.7750
2023-03-14T09:53:56.396Z,35.7780
2023-03-14T09:54:58.642Z,35.7920
2023-03-14T09:56:00.917Z,35.7870
2023-03-14T09:57:03.205Z,35.7850
2023-03-14T09:58:03.350Z,35.7870
2023-03-14T09:59:05.652Z,35.7600
2023-03-14T10:00:08.036Z,35.7430
2023-03-14T10:01:10.248Z,35.7480
2023-03-14T10:02:12.518Z,35.7350
2023-03-14T10:03:14.765Z,35.7180
2023-03-14T10:04:14.987Z,35.7120
2023-03-14T10:05:15.154Z,35.7070
2023-03-14T10:06:17.510Z,35.7120
2023-03-14T10:07:19.740Z,35.7120
2023-03-14T10:08:22.055Z,35.6890
2023-03-14T10:09:24.431Z,35.7180
2023-03-14T10:10:26.760Z,35.7130
2023-03-14T10:11:26.916Z,35.7350
2023-03-14T10:12:29.324Z,35.7290
2023-03-14T10:13:31.605Z,35.7120
2023-03-14T10:14:33.987Z,35.7180
2023-03-14T10:15:34.290Z,35.7430
2023-03-14T10:16:36.547Z,35.7540
2023-03-14T10:17:38.799Z,35.7780
2023-03-14T10:18:41.121Z,35.8350
2023-03-14T10:19:43.431Z,35.8290
2023-03-14T10:20:45.833Z,35.8180
2023-03-14T10:21:45.860Z,35.8180
2023-03-14T10:22:48.118Z,35.8050
2023-03-14T10:23:50.370Z,35.8050
2023-03-14T10:24:52.668Z,35.8530
2023-03-14T10:25:54.964Z,35.8530
2023-03-14T10:26:57.125Z,35.8810
2023-03-14T10:27:59.426Z,35.8860
2023-03-14T10:29:01.759Z,35.8920
2023-03-14T10:30:01.857Z,35.8920
2023-03-14T10:31:04.176Z,35.8880
2023-03-14T10:32:06.353Z,35.9050
2023-03-14T10:33:08.621Z,35.9110
2023-03-14T10:34:10.889Z,35.9370
2023-03-14T10:35:13.138Z,35.9340
2023-03-14T10:36:15.764Z,35.9340
2023-03-14T10:37:17.650Z,35.9600
2023-03-14T10:38:19.916Z,35.9340
2023-03-14T10:39:20.048Z,35.9160
2023-03-14T10:40:22.382Z,35.9340
2023-03-14T10:41:24.775Z,35.9390
2023-03-14T10:42:26.917Z,35.9340
2023-03-14T10:43:29.147Z,35.9060
2023-03-14T10:44:31.404Z,35.9280
2023-03-14T10:45:33.648Z,35.9560
2023-03-14T10:46:36.002Z,35.9560
2023-03-14T10:47:36.022Z,35.9510
2023-03-14T10:48:36.139Z,35.9230
2023-03-14T10:49:38.424Z,35.9060
2023-03-14T10:50:40.602Z,35.8870
2023-03-14T10:51:42.912Z,35.8830
2023-03-14T10:53:01.613Z,35.9280
2023-03-14T10:53:47.318Z,35.9280
2023-03-14T10:54:49.579Z,35.9750
2023-03-14T10:55:51.878Z,35.9580
2023-03-14T10:56:51.989Z,35.9410
2023-03-14T10:57:54.224Z,35.9410
2023-03-14T10:58:56.494Z,35.9110
2023-03-14T10:59:58.769Z,35.9110
2023-03-14T11:01:01.021Z,35.9350
2023-03-14T11:02:03.360Z,35.9510
2023-03-14T11:03:05.540Z,35.9620
2023-03-14T11:04:07.824Z,35.9940
2023-03-14T11:05:09.986Z,35.9940
2023-03-14T11:06:12.233Z,35.9940
2023-03-14T11:07:12.350Z,36.0190
2023-03-14T11:08:14.585Z,36.0020
2023-03-14T11:09:16.845Z,36.0020
2023-03-14T11:10:19.137Z,36.0240
2023-03-14T11:11:21.436Z,36.0410
2023-03-14T11:12:23.720Z,36.0730
2023-03-14T11:13:26.000Z,36.0930
2023-03-14T11:14:28.304Z,36.0580
2023-03-14T11:15:28.393Z,36.0630
2023-03-14T11:16:30.682Z,36.0520
2023-03-14T11:17:33.060Z,36.0630
2023-03-14T11:18:35.231Z,36.0610
2023-03-14T11:19:37.639Z,36.0140
2023-03-14T11:20:39.828Z,36.0370
2023-03-14T11:21:42.105Z,36.0550
2023-03-14T11:22:44.356Z,36.0370
2023-03-14T11:23:46.587Z,36.0240
2023-03-14T11:24:48.836Z,36.0370
2023-03-14T11:25:51.054Z,36.0370
2023-03-14T11:26:53.346Z,36.0520
2023-03-14T11:27:55.576Z,36.0690
2023-03-14T11:28:57.785Z,36.0990
2023-03-14T11:30:00.025Z,36.0900
2023-03-14T11:31:02.358Z,36.1290
2023-03-14T11:32:02.455Z,36.1610
2023-03-14T11:33:04.870Z,36.1560
2023-03-14T11:34:07.615Z,36.1710
2023-03-14T11:35:09.354Z,36.2160
2023-03-14T11:36:11.762Z,36.2030
2023-03-14T11:37:13.920Z,36.2210
2023-03-14T11:38:16.187Z,36.2160
2023-03-14T11:39:16.304Z,36.2010
2023-03-14T11:40:18.559Z,36.1990
2023-03-14T11:41:20.885Z,36.2320
2023-03-14T11:42:23.229Z,36.2620
2023-03-14T11:43:25.629Z,36.3180
2023-03-14T11:44:28.272Z,36.3490
2023-03-14T11:45:30.013Z,36.3540
2023-03-14T11:46:32.347Z,36.3120
2023-03-14T11:47:32.436Z,36.3510
2023-03-14T11:48:34.832Z,36.3370
2023-03-14T11:49:37.001Z,36.3430
2023-03-14T11:50:39.286Z,36.3430
2023-03-14T11:51:41.607Z,36.3700
2023-03-14T11:52:44.543Z,36.3240
2023-03-14T11:53:46.740Z,36.3370
2023-03-14T11:54:46.247Z,36.3450
2023-03-14T11:55:48.486Z,36.3700
2023-03-14T11:56:50.638Z,36.3700
2023-03-14T11:57:52.893Z,36.3570
2023-03-14T11:58:55.071Z,36.3870
2023-03-14T12:00:59.721Z,36.4080
2023-03-14T12:02:02.018Z,36.4080
2023-03-14T12:03:04.238Z,36.4080
2023-03-14T12:04:04.577Z,36.4080
2023-03-14T12:05:06.646Z,36.3930
2023-03-14T12:06:08.944Z,36.3700
2023-03-14T12:07:11.212Z,36.3810
2023-03-14T12:08:13.466Z,36.3190
2023-03-14T12:09:15.833Z,36.3300
2023-03-14T12:10:18.032Z,36.3400
2023-03-14T12:11:20.365Z,36.3450
2023-03-14T12:12:20.516Z,36.3670
2023-03-14T12:13:22.873Z,36.3970
2023-03-14T12:14:25.290Z,36.4350
2023-03-14T12:15:27.524Z,36.4350
2023-03-14T12:16:29.974Z,36.4140
2023-03-14T12:17:29.983Z,36.4050
2023-03-14T12:18:32.319Z,36.3840
2023-03-14T12:19:34.740Z,36.3870
2023-03-14T12:20:36.900Z,36.4310
2023-03-14T12:21:39.198Z,36.4470
2023-03-14T12:22:41.531Z,36.4520
2023-03-14T12:23:43.853Z,36.4920
2023-03-14T12:24:44.073Z,36.5000
2023-03-14T12:25:46.419Z,36.5070
2023-03-14T12:26:48.767Z,36.5270
2023-03-14T12:27:51.100Z,36.5710
2023-03-14T12:28:53.476Z,36.6030
2023-03-14T12:29:55.812Z,36.5800
2023-03-14T12:30:55.956Z,36.5920
2023-03-14T12:31:58.352Z,36.6110
2023-03-14T12:33:00.770Z,36.6320
2023-03-14T12:34:02.960Z,36.6160
2023-03-14T12:35:05.282Z,36.5920
2023-03-14T12:36:07.578Z,36.5540
2023-03-14T12:37:07.759Z,36.5060
2023-03-14T12:38:10.086Z,36.4820
2023-03-14T12:39:12.413Z,36.4500
2023-03-14T12:40:14.821Z,36.4510
2023-03-14T12:41:17.071Z,36.4060
2023-03-14T12:42:17.202Z,36.4220
2023-03-14T12:43:19.472Z,36.4350
2023-03-14T12:44:22.321Z,36.4010
2023-03-14T12:45:24.017Z,36.3900
2023-03-14T12:46:26.349Z,36.3470
2023-03-14T12:47:28.478Z,36.3450
2023-03-14T12:48:30.738Z,36.3640
2023-03-14T12:49:32.986Z,36.3680
2023-03-14T12:50:35.207Z,36.3180
2023-03-14T12:51:35.317Z,36.3350
2023-03-14T12:52:37.589Z,36.2890
2023-03-14T12:53:39.869Z,36.2450
2023-03-14T12:54:42.128Z,36.1740
2023-03-14T12:55:44.427Z,36.2420
2023-03-14T12:56:46.637Z,36.4420
2023-03-14T12:57:49.052Z,36.8220
2023-03-14T12:58:51.133Z,37.3620
2023-03-14T12:59:51.296Z,37.6690
2023-03-14T13:00:53.625Z,38.5720
2023-03-14T13:01:55.872Z,40.0210
2023-03-14T13:02:58.165Z,41.0230
2023-03-14T13:04:00.558Z,41.6510
2023-03-14T13:05:02.712Z,41.8960
2023-03-14T13:06:05.028Z,42.1810
2023-03-14T13:07:07.308Z,42.1300
2023-03-14T13:08:07.466Z,42.2320
2023-03-14T13:09:09.766Z,42.2740
2023-03-14T13:10:12.351Z,42.4120
2023-03-14T13:11:14.443Z,42.6420
2023-03-14T13:12:16.792Z,42.6110
2023-03-14T13:13:16.991Z,42.7490
2023-03-14T13:14:19.347Z,42.7610
2023-03-14T13:15:21.752Z,42.8260
2023-03-14T13:16:24.103Z,42.9290
2023-03-14T13:17:34.670Z,42.9470
2023-03-14T13:18:26.633Z,42.9960
2023-03-14T13:19:28.997Z,43.0130
2023-03-14T13:20:31.348Z,43.0960
2023-03-14T13:21:33.798Z,43.2370
2023-03-14T13:22:33.922Z,43.3340
2023-03-14T13:23:36.281Z,43.3560
2023-03-14T13:24:38.611Z,43.4410
2023-03-14T13:25:40.893Z,43.4900
2023-03-14T13:26:43.224Z,43.4740
2023-03-14T13:27:45.520Z,43.5630
2023-03-14T13:28:45.651Z,43.6590
2023-03-14T13:29:47.826Z,43.4580
2023-03-14T13:30:50.150Z,43.6190
2023-03-14T13:31:52.348Z,43.6050
2023-03-14T13:32:54.738Z,43.6510
2023-03-14T13:33:56.994Z,43.8140
2023-03-14T13:34:59.269Z,44.0090
2023-03-14T13:36:01.654Z,44.0580
2023-03-14T13:37:01.749Z,44.2060
2023-03-14T13:38:12.484Z,44.2880
2023-03-14T13:39:06.403Z,44.2360
2023-03-14T13:40:08.860Z,44.3210
2023-03-14T13:41:11.049Z,44.2970
2023-03-14T13:42:11.187Z,43.3710
2023-03-14T13:43:13.472Z,44.0870
2023-03-14T13:44:15.809Z,44.4550
2023-03-14T13:45:20.497Z,44.6950
2023-03-14T13:46:20.768Z,44.5390
2023-03-14T13:47:22.923Z,44.5930
2023-03-14T13:48:23.068Z,44.3850
2023-03-14T13:49:25.417Z,44.2080
2023-03-14T13:50:27.772Z,44.0650
2023-03-14T13:51:30.059Z,43.9690
2023-03-14T13:52:30.352Z,43.8900
2023-03-14T13:53:32.599Z,43.8260
2023-03-14T13:54:34.928Z,43.8120
2023-03-14T13:55:37.254Z,43.5700
2023-03-14T13:56:40.910Z,43.5760
2023-03-14T13:57:41.987Z,43.6550
2023-03-14T13:58:42.070Z,43.6590
2023-03-14T13:59:44.380Z,43.4400
2023-03-14T14:00:46.695Z,43.3460
2023-03-14T14:01:49.120Z,43.3180
2023-03-14T14:02:51.622Z,43.4480
2023-03-14T14:03:53.597Z,43.4400
2023-03-14T14:04:53.898Z,43.3250
2023-03-14T14:05:55.992Z,43.2750
2023-03-14T14:06:58.287Z,43.4650
2023-03-14T14:08:00.655Z,43.5740
2023-03-14T14:09:02.851Z,43.4250
2023-03-14T14:10:05.050Z,43.5740
2023-03-14T14:11:07.250Z,43.4910
2023-03-14T14:12:16.598Z,43.3900
2023-03-14T14:13:11.675Z,43.2530
2023-03-14T14:14:13.860Z,43.1610
2023-03-14T14:15:16.073Z,43.1300
2023-03-14T14:16:16.197Z,42.9610
2023-03-14T14:17:18.388Z,42.2260
2023-03-14T14:18:20.576Z,42.6760
2023-03-14T14:19:22.792Z,43.0100
2023-03-14T14:20:25.060Z,43.3850
2023-03-14T14:21:27.502Z,43.5670
2023-03-14T14:22:29.644Z,43.8250
2023-03-14T14:23:31.965Z,43.9200
2023-03-14T14:24:34.202Z,43.8230
2023-03-14T14:25:34.376Z,43.6900
2023-03-14T14:26:36.613Z,43.6170
2023-03-14T14:27:38.944Z,43.7060
2023-03-14T14:28:41.302Z,43.7300
2023-03-14T14:29:43.476Z,43.9030
2023-03-14T14:30:45.839Z,43.9670
2023-03-14T14:31:48.051Z,44.0720
2023-03-14T14:32:48.265Z,44.0220
2023-03-14T14:33:50.604Z,43.8180
2023-03-14T14:34:52.770Z,43.7900
2023-03-14T14:35:55.133Z,43.8000
2023-03-14T14:36:57.326Z,43.8910
2023-03-14T14:37:59.592Z,43.9330
2023-03-14T14:39:01.900Z,43.7200
2023-03-14T14:40:02.017Z,43.7200
2023-03-14T14:41:04.324Z,43.8790
2023-03-14T14:42:06.663Z,43.8930
2023-03-14T14:43:08.979Z,43.7300
2023-03-14T14:44:11.431Z,43.3530
2023-03-14T14:45:13.663Z,43.1960
2023-03-14T14:46:13.898Z,42.8020
2023-03-14T14:47:16.090Z,42.5530
2023-03-14T14:48:18.336Z,42.1810
2023-03-14T14:49:20.582Z,40.9880
2023-03-14T14:50:22.786Z,39.4000
2023-03-14T14:51:24.989Z,37.8170
2023-03-14T14:52:28.964Z,36.7550
2023-03-14T14:53:29.373Z,35.3210
2023-03-14T14:54:31.688Z,35.7860
2023-03-14T14:55:33.800Z,35.9000
2023-03-14T14:56:33.857Z,35.4090
2023-03-14T14:57:36.102Z,35.9750
2023-03-14T14:58:38.345Z,35.5710
2023-03-14T14:59:40.637Z,35.8580
2023-03-14T15:00:42.749Z,34.5340
2023-03-14T15:01:44.951Z,33.4370
2023-03-14T15:02:47.080Z,33.8370
2023-03-14T15:03:49.233Z,34.0770
2023-03-14T15:04:51.547Z,35.0640
2023-03-14T15:05:53.684Z,35.6890
2023-03-14T15:06:55.958Z,35.9810
2023-03-14T15:07:58.218Z,36.0610
2023-03-14T15:09:00.509Z,36.4880
2023-03-14T15:10:00.766Z,36.8770
2023-03-14T15:11:02.887Z,37.1460
2023-03-14T15:12:04.972Z,36.8540
2023-03-14T15:13:07.191Z,36.2590
2023-03-14T15:14:09.365Z,35.7860
2023-03-14T15:15:11.653Z,35.8640
2023-03-14T15:16:13.886Z,36.5180
2023-03-14T15:17:16.015Z,37.3290
2023-03-14T15:18:18.251Z,37.7120
2023-03-14T15:19:24.870Z,38.2070
2023-03-14T15:20:22.680Z,38.7030
2023-03-14T15:21:24.938Z,38.9720
2023-03-14T15:22:27.162Z,38.9590
2023-03-14T15:23:29.418Z,39.1620
2023-03-14T15:24:29.544Z,39.5260
2023-03-14T15:25:53.571Z,39.5260
2023-03-14T15:26:34.028Z,39.8120
2023-03-14T15:27:36.256Z,39.9460
2023-03-14T15:28:38.474Z,40.0850
2023-03-14T15:29:40.733Z,40.2350
2023-03-14T15:30:40.976Z,40.3660
2023-03-14T15:31:43.210Z,40.5520
2023-03-14T15:32:45.412Z,40.6680
2023-03-14T15:33:47.685Z,40.6680
2023-03-14T15:34:49.994Z,40.6410
2023-03-14T15:35:52.342Z,40.7740
2023-03-14T15:36:54.510Z,40.8600
2023-03-14T15:37:56.734Z,40.9520
2023-03-14T15:38:58.911Z,40.7930
2023-03-14T15:40:01.146Z,40.7330
2023-03-14T15:41:03.408Z,40.8410
2023-03-14T15:42:03.520Z,40.8230
2023-03-14T15:43:05.753Z,40.8840